Corolla, North Carolina
Current Conditions -  °F | °C
As of 2:54 AM on Sunday 21 Dec 2014 (Local Time) from KECG Reporting Station
Clear Clear  
Wind Chill: 33°   Ceiling: Unl
Heat Index: 38°   Visibility: 10mi
Dew Point: 30°   Wind: 7mph
Humidity: 73%   Direction: 360°N
Pressure: 30.29"   Gusts: NA
Location:  36.38°N, 75.83°W
Report Text: KECG 210754Z AUTO 36006KT 10SM CLR 03/M01 A3029 RMK AO2 SLP257 T00331011 TSNO
Loading
Personal Weather Stations






























Interactive Weather Map New forecast layout! Learn more

10-Day Weather Forecast

Advertisements
Track Severe Weather on mobile